Time;durP1;ratioP1;P1;durP2;ratioP2;P2;SDS_P1;SDS_P2;PMS_P1;PMS_P2;Temp;Humidity;BMP_temperature;BMP_pressure;BME280_temperature;BME280_humidity;BME280_pressure;Samples;Min_cycle;Max_cycle;Signal;HPM_P1;HPM_P2
2023/03/30 00:01:53;;;;;;;4.50;1.20;;;13.00;99.90;;;;;;4994834;28;20502;-79
2023/03/30 00:04:21;;;;;;;5.72;1.40;;;12.70;99.90;;;;;;5019343;28;20061;-79
2023/03/30 00:06:47;;;;;;;4.65;2.03;;;13.10;99.90;;;;;;5019072;28;20033;-79
2023/03/30 00:09:13;;;;;;;1.02;0.70;;;13.20;99.90;;;;;;5017525;28;20040;-79
2023/03/30 00:11:40;;;;;;;4.45;1.42;;;12.90;99.90;;;;;;5010759;28;20059;-79
2023/03/30 00:14:05;;;;;;;4.15;1.50;;;13.00;99.90;;;;;;5024029;28;20044;-79
2023/03/30 00:16:31;;;;;;;5.35;1.90;;;13.50;99.90;;;;;;5037491;28;20030;-79
2023/03/30 00:18:57;;;;;;;5.38;1.60;;;13.00;99.90;;;;;;5007550;28;20033;-79
2023/03/30 00:21:22;;;;;;;2.67;1.30;;;13.00;99.90;;;;;;5007363;28;20026;-80
2023/03/30 00:23:48;;;;;;;2.83;1.30;;;13.10;99.90;;;;;;5009058;28;20667;-79
2023/03/30 00:26:14;;;;;;;2.65;1.15;;;13.10;99.90;;;;;;5012551;28;20033;-79
2023/03/30 00:28:41;;;;;;;4.88;1.38;;;13.10;99.90;;;;;;5009288;28;20065;-79
2023/03/30 00:31:06;;;;;;;3.22;1.30;;;13.70;99.90;;;;;;5024154;28;20103;-79
2023/03/30 00:33:32;;;;;;;5.90;1.20;;;13.30;99.90;;;;;;5033454;28;20088;-79
2023/03/30 00:35:58;;;;;;;6.65;1.58;;;13.50;99.90;;;;;;4999312;28;20059;-79
2023/03/30 00:38:25;;;;;;;5.50;1.20;;;13.30;99.90;;;;;;5014818;28;20061;-79
2023/03/30 00:40:56;;;;;;;6.60;1.20;;;13.20;99.90;;;;;;5007495;28;20041;-79
2023/03/30 00:43:21;;;;;;;1.80;1.20;;;13.20;99.90;;;;;;5026753;28;20494;-79
2023/03/30 00:45:47;;;;;;;3.30;1.45;;;13.40;99.90;;;;;;4993897;28;20107;-79
2023/03/30 00:48:33;;;;;;;5.60;1.48;;;13.30;99.90;;;;;;5003944;28;20375;-79
2023/03/30 00:51:01;;;;;;;4.18;1.08;;;13.20;99.90;;;;;;5017037;28;20479;-79
2023/03/30 00:53:29;;;;;;;6.40;1.42;;;13.70;99.90;;;;;;5023410;28;20022;-79
2023/03/30 00:55:55;;;;;;;7.15;1.52;;;13.50;99.90;;;;;;5016783;28;20532;-78
2023/03/30 00:58:21;;;;;;;4.78;1.80;;;13.20;99.90;;;;;;5005687;28;20559;-80
2023/03/30 01:00:47;;;;;;;3.53;1.10;;;13.20;99.90;;;;;;4991848;28;20040;-79
2023/03/30 01:03:22;;;;;;;4.72;1.00;;;13.30;99.90;;;;;;5004007;28;20502;-79
2023/03/30 01:05:48;;;;;;;4.35;1.90;;;13.20;99.90;;;;;;4999633;28;20120;-79
2023/03/30 01:08:15;;;;;;;4.50;1.58;;;13.20;99.90;;;;;;5032301;28;20498;-79
2023/03/30 01:10:42;;;;;;;3.83;1.48;;;13.10;99.90;;;;;;5021408;28;20954;-78
2023/03/30 01:13:08;;;;;;;6.63;1.50;;;13.40;99.90;;;;;;5016338;28;20041;-79
2023/03/30 01:15:35;;;;;;;3.13;1.50;;;13.40;99.90;;;;;;5005517;28;20021;-79
2023/03/30 01:18:18;;;;;;;2.92;1.45;;;13.20;99.90;;;;;;5003404;28;20079;-79
2023/03/30 01:20:57;;;;;;;3.80;1.45;;;13.20;99.90;;;;;;5016713;28;20257;-80
2023/03/30 01:23:39;;;;;;;6.60;1.63;;;13.60;99.90;;;;;;5008692;28;20132;-79
2023/03/30 01:26:23;;;;;;;5.95;1.70;;;13.30;99.90;;;;;;5018315;28;20030;-79
2023/03/30 01:29:09;;;;;;;4.90;1.20;;;13.30;99.90;;;;;;5037787;28;20083;-78
2023/03/30 01:31:40;;;;;;;3.78;0.90;;;13.30;99.90;;;;;;5038692;28;20038;-80
2023/03/30 01:34:09;;;;;;;2.97;1.00;;;13.40;99.90;;;;;;5023541;28;20045;-80
2023/03/30 01:36:44;;;;;;;3.55;1.20;;;13.50;99.90;;;;;;5017206;28;20121;-81
2023/03/30 01:39:40;;;;;;;3.92;0.85;;;13.60;99.90;;;;;;5017362;28;20042;-80
2023/03/30 01:42:06;;;;;;;5.33;1.33;;;13.70;99.90;;;;;;5007639;28;20497;-78
2023/03/30 01:44:39;;;;;;;5.03;1.38;;;13.90;99.90;;;;;;5015183;28;20379;-80
2023/03/30 01:47:24;;;;;;;9.82;1.33;;;13.70;99.90;;;;;;5030619;28;20087;-80
2023/03/30 01:50:05;;;;;;;5.88;1.15;;;13.90;99.90;;;;;;5032673;28;20042;-80
2023/03/30 01:52:55;;;;;;;5.93;1.38;;;13.70;99.90;;;;;;5035278;28;20038;-80
2023/03/30 01:55:28;;;;;;;8.88;1.60;;;13.80;99.90;;;;;;5022354;28;20026;-79
2023/03/30 01:58:01;;;;;;;2.85;1.33;;;13.80;99.90;;;;;;5024209;28;20037;-79
2023/03/30 02:00:26;;;;;;;4.57;1.38;;;13.80;99.90;;;;;;4986315;28;20387;-80
2023/03/30 02:02:57;;;;;;;3.45;1.35;;;13.90;99.90;;;;;;5002036;28;20060;-79
2023/03/30 02:05:23;;;;;;;5.28;1.58;;;14.00;99.90;;;;;;5004102;28;20103;-80
2023/03/30 02:07:53;;;;;;;1.27;0.60;;;13.80;99.90;;;;;;4990229;28;20034;-78
2023/03/30 02:10:21;;;;;;;3.88;1.00;;;13.90;99.90;;;;;;5016560;28;20039;-79
2023/03/30 02:12:46;;;;;;;2.53;0.98;;;14.00;99.90;;;;;;5008155;28;20029;-79
2023/03/30 02:15:12;;;;;;;3.13;0.90;;;14.20;99.90;;;;;;5005735;28;20080;-79
2023/03/30 02:17:41;;;;;;;1.38;0.75;;;14.00;99.90;;;;;;5001749;28;20128;-78
2023/03/30 02:20:11;;;;;;;5.90;1.27;;;14.20;99.90;;;;;;5018278;28;20034;-80
2023/03/30 02:22:36;;;;;;;4.47;0.98;;;14.10;99.90;;;;;;5003258;28;20101;-80
2023/03/30 02:25:02;;;;;;;4.40;1.40;;;14.10;99.90;;;;;;4999244;28;20033;-80
2023/03/30 02:27:27;;;;;;;2.00;0.90;;;14.10;99.90;;;;;;4999939;28;20033;-79
2023/03/30 02:29:55;;;;;;;4.20;1.30;;;14.10;99.90;;;;;;5005104;28;20050;-80
2023/03/30 02:32:28;;;;;;;7.75;1.58;;;14.20;99.90;;;;;;5000144;28;20032;-79
2023/03/30 02:35:14;;;;;;;2.92;1.23;;;14.10;99.90;;;;;;5014863;28;20124;-79
2023/03/30 02:37:59;;;;;;;5.65;1.27;;;14.20;99.90;;;;;;5025126;28;20037;-79
2023/03/30 02:40:36;;;;;;;1.92;1.13;;;14.40;99.90;;;;;;5032338;28;20037;-80
2023/03/30 02:43:11;;;;;;;2.90;1.35;;;14.20;99.90;;;;;;5006805;28;20040;-79
2023/03/30 02:45:48;;;;;;;3.70;0.85;;;14.20;99.90;;;;;;5023356;28;20026;-80
2023/03/30 02:48:23;;;;;;;5.10;1.25;;;14.20;99.90;;;;;;5012669;28;20030;-79
2023/03/30 02:51:26;;;;;;;5.32;1.08;;;14.20;99.90;;;;;;5029494;28;20486;-80
2023/03/30 02:53:56;;;;;;;5.72;1.77;;;14.20;99.90;;;;;;5032909;28;20123;-80
2023/03/30 02:56:36;;;;;;;4.53;1.58;;;14.10;99.90;;;;;;5016366;28;20541;-78
2023/03/30 02:59:08;;;;;;;6.78;1.40;;;14.20;99.90;;;;;;5002926;28;20056;-78
2023/03/30 03:01:44;;;;;;;10.38;1.67;;;14.10;99.90;;;;;;5015581;28;20058;-78
2023/03/30 03:04:09;;;;;;;;;;;14.10;99.90;;;;;;5005086;28;20034;-78
2023/03/30 03:06:36;;;;;;;9.90;1.33;;;14.00;99.90;;;;;;5003228;28;19914;-78
2023/03/30 03:09:02;;;;;;;9.15;1.50;;;14.10;99.90;;;;;;5005198;28;20032;-78
2023/03/30 03:11:28;;;;;;;6.28;1.27;;;14.00;99.90;;;;;;5014298;28;20038;-78
2023/03/30 03:13:54;;;;;;;9.18;1.40;;;14.40;99.90;;;;;;4996480;28;20128;-78
2023/03/30 03:16:20;;;;;;;2.53;1.20;;;14.40;99.90;;;;;;5028914;28;20033;-78
2023/03/30 03:18:45;;;;;;;3.83;1.00;;;14.10;99.90;;;;;;5022814;28;20053;-78
2023/03/30 03:21:14;;;;;;;5.07;1.00;;;14.30;99.90;;;;;;5000293;28;20065;-78
2023/03/30 03:23:40;;;;;;;7.32;1.60;;;14.20;99.90;;;;;;5018938;28;20088;-79
2023/03/30 03:26:06;;;;;;;2.58;1.20;;;14.00;99.90;;;;;;4996961;28;20034;-78
2023/03/30 03:28:32;;;;;;;7.07;1.85;;;14.00;99.90;;;;;;5021239;28;20033;-78
2023/03/30 03:30:58;;;;;;;4.97;1.08;;;14.00;99.90;;;;;;5005002;28;20507;-78
2023/03/30 03:33:25;;;;;;;2.83;1.38;;;13.90;99.90;;;;;;5017540;28;20045;-78
2023/03/30 03:35:52;;;;;;;2.03;0.82;;;14.00;99.90;;;;;;5006491;28;20113;-78
2023/03/30 03:38:21;;;;;;;4.25;0.70;;;13.90;99.90;;;;;;5001609;28;20026;-78
2023/03/30 03:40:54;;;;;;;3.78;1.55;;;13.80;99.90;;;;;;5016905;28;20034;-78
2023/03/30 03:43:20;;;;;;;4.32;0.70;;;14.00;99.90;;;;;;5002401;28;20030;-78
2023/03/30 03:45:46;;;;;;;7.57;1.52;;;14.00;99.90;;;;;;5001153;28;20076;-78
2023/03/30 03:48:12;;;;;;;5.25;1.55;;;14.10;99.90;;;;;;5000692;28;20498;-78
2023/03/30 03:50:38;;;;;;;7.90;1.38;;;14.00;99.90;;;;;;4996867;28;20371;-78
2023/03/30 03:53:03;;;;;;;8.15;1.50;;;14.10;99.90;;;;;;5003016;28;20095;-77
2023/03/30 03:55:29;;;;;;;10.07;2.10;;;14.80;99.90;;;;;;5014566;28;20113;-78
2023/03/30 03:57:55;;;;;;;6.05;1.15;;;14.20;99.90;;;;;;5004902;28;20358;-78
2023/03/30 04:00:22;;;;;;;6.28;1.65;;;14.30;99.90;;;;;;5014789;28;20029;-78
2023/03/30 04:02:47;;;;;;;7.30;1.40;;;14.10;99.90;;;;;;5026776;28;20569;-78
2023/03/30 04:05:13;;;;;;;3.50;1.48;;;14.40;99.90;;;;;;5036655;28;20058;-78
2023/03/30 04:07:38;;;;;;;3.63;1.20;;;14.20;99.90;;;;;;5021539;28;20029;-77
2023/03/30 04:10:05;;;;;;;3.70;1.30;;;14.10;99.90;;;;;;5013077;28;20636;-78
2023/03/30 04:12:31;;;;;;;4.57;1.70;;;14.10;99.90;;;;;;5008391;28;20037;-78
2023/03/30 04:14:57;;;;;;;3.80;1.80;;;14.30;99.90;;;;;;5006206;28;20417;-78
2023/03/30 04:17:22;;;;;;;3.85;1.38;;;14.10;99.90;;;;;;5005244;28;20030;-78
2023/03/30 04:19:57;;;;;;;1.33;0.95;;;14.10;99.90;;;;;;5008862;28;20120;-78
2023/03/30 04:22:24;;;;;;;4.40;1.45;;;14.10;99.90;;;;;;5017636;28;20046;-78
2023/03/30 04:24:50;;;;;;;0.80;0.35;;;14.10;99.90;;;;;;5007849;28;20080;-78
2023/03/30 04:27:16;;;;;;;2.22;0.85;;;13.90;99.90;;;;;;5031188;28;20592;-77
2023/03/30 04:29:43;;;;;;;6.10;1.27;;;13.90;99.90;;;;;;5020238;28;20037;-78
2023/03/30 04:32:11;;;;;;;10.82;1.60;;;14.00;99.90;;;;;;5019563;28;20177;-78
2023/03/30 04:34:45;;;;;;;4.47;1.10;;;14.10;99.90;;;;;;5017155;28;20054;-78
2023/03/30 04:37:16;;;;;;;9.02;1.27;;;14.00;99.90;;;;;;5006861;28;20048;-77
2023/03/30 04:39:42;;;;;;;4.90;1.50;;;14.30;99.90;;;;;;5002386;28;20061;-78
2023/03/30 04:42:12;;;;;;;5.35;1.83;;;14.30;99.90;;;;;;5005060;28;20045;-78
2023/03/30 04:44:41;;;;;;;8.60;1.60;;;14.30;99.90;;;;;;5004143;28;20108;-78
2023/03/30 04:47:07;;;;;;;3.30;1.25;;;14.10;99.90;;;;;;5017149;28;20508;-78
2023/03/30 04:49:32;;;;;;;3.75;1.42;;;14.10;99.90;;;;;;5030447;28;20168;-77
2023/03/30 04:51:58;;;;;;;4.03;1.27;;;14.30;99.90;;;;;;5004806;28;20036;-78
2023/03/30 04:54:23;;;;;;;3.75;2.22;;;14.10;99.90;;;;;;5003739;28;20098;-78
2023/03/30 04:56:49;;;;;;;4.10;1.60;;;14.20;99.90;;;;;;5026816;28;21537;-78
2023/03/30 04:59:15;;;;;;;3.08;1.20;;;14.10;99.90;;;;;;5003002;28;20029;-78
2023/03/30 05:01:40;;;;;;;2.25;0.75;;;14.50;99.90;;;;;;5016775;28;20580;-77
2023/03/30 05:04:06;;;;;;;2.13;1.25;;;14.20;99.90;;;;;;5014073;28;20552;-77
2023/03/30 05:06:32;;;;;;;6.63;1.40;;;14.60;99.90;;;;;;5021803;28;20053;-77
2023/03/30 05:08:57;;;;;;;2.70;1.50;;;14.40;99.90;;;;;;5002371;28;20121;-78
2023/03/30 05:11:23;;;;;;;5.05;1.15;;;14.20;99.90;;;;;;5003803;28;20045;-79
2023/03/30 05:13:52;;;;;;;4.97;2.08;;;14.00;99.90;;;;;;5017118;28;20062;-79
2023/03/30 05:16:18;;;;;;;2.72;1.20;;;14.40;99.90;;;;;;4996874;28;20053;-77
2023/03/30 05:18:44;;;;;;;4.53;1.52;;;14.40;99.90;;;;;;5033726;28;20442;-77
2023/03/30 05:21:10;;;;;;;5.13;1.02;;;14.10;99.90;;;;;;5031972;28;20034;-77
2023/03/30 05:23:36;;;;;;;6.68;1.70;;;14.40;99.90;;;;;;5032964;28;20033;-78
2023/03/30 05:26:03;;;;;;;4.65;1.10;;;14.20;99.90;;;;;;5008910;28;20030;-78
2023/03/30 05:28:28;;;;;;;3.95;2.67;;;14.50;99.90;;;;;;5028660;28;20057;-79
2023/03/30 05:30:54;;;;;;;6.28;1.40;;;13.90;99.90;;;;;;5005078;28;20022;-79
2023/03/30 05:33:21;;;;;;;2.15;0.95;;;14.20;99.90;;;;;;5018634;28;20468;-79
2023/03/30 05:35:46;;;;;;;2.33;1.10;;;14.60;99.90;;;;;;5021640;28;20029;-79
2023/03/30 05:38:12;;;;;;;3.72;1.20;;;14.30;99.90;;;;;;5028558;28;20494;-79
2023/03/30 05:40:37;;;;;;;5.97;1.50;;;14.30;99.90;;;;;;5002227;28;20038;-79
2023/03/30 05:43:03;;;;;;;4.90;1.40;;;14.20;99.90;;;;;;5005608;28;20132;-79
2023/03/30 05:45:29;;;;;;;12.20;1.30;;;14.20;99.90;;;;;;5026177;28;20061;-79
2023/03/30 05:47:54;;;;;;;4.88;1.45;;;14.30;99.90;;;;;;5007448;28;20644;-79
2023/03/30 05:50:20;;;;;;;4.80;1.70;;;14.40;99.90;;;;;;5030040;28;20374;-79
2023/03/30 05:52:46;;;;;;;2.70;1.00;;;14.20;99.90;;;;;;5013691;28;20049;-79
2023/03/30 05:55:12;;;;;;;3.45;0.85;;;14.20;99.90;;;;;;5029498;28;20576;-78
2023/03/30 05:57:38;;;;;;;3.33;1.42;;;14.40;99.90;;;;;;5003708;28;20551;-79
2023/03/30 06:00:05;;;;;;;6.55;1.45;;;14.00;99.90;;;;;;5014986;28;20048;-80
2023/03/30 06:02:31;;;;;;;5.35;0.70;;;14.10;99.90;;;;;;5030578;28;20099;-79
2023/03/30 06:04:57;;;;;;;6.38;1.38;;;14.20;99.90;;;;;;5000879;28;20037;-79
2023/03/30 06:07:23;;;;;;;4.40;1.52;;;14.50;99.90;;;;;;5017477;28;20030;-79
2023/03/30 06:09:49;;;;;;;2.53;1.20;;;14.10;99.90;;;;;;5022195;28;20494;-79
2023/03/30 06:12:14;;;;;;;1.63;0.75;;;14.30;99.90;;;;;;5004672;28;20064;-79
2023/03/30 06:14:40;;;;;;;3.90;1.20;;;14.30;99.90;;;;;;5017126;28;20033;-79
2023/03/30 06:17:06;;;;;;;2.10;1.08;;;14.30;99.90;;;;;;5004462;28;20473;-79
2023/03/30 06:19:32;;;;;;;5.93;1.58;;;14.30;99.90;;;;;;5033322;28;20030;-79
2023/03/30 06:21:57;;;;;;;3.22;1.25;;;14.30;99.90;;;;;;4996913;28;20509;-79
2023/03/30 06:24:23;;;;;;;6.80;1.48;;;14.20;99.90;;;;;;5024693;28;20367;-79
2023/03/30 06:26:49;;;;;;;4.88;1.42;;;14.30;99.90;;;;;;5007410;28;20454;-78
2023/03/30 06:29:15;;;;;;;3.40;0.70;;;14.10;99.90;;;;;;5013371;28;20038;-79
2023/03/30 06:31:40;;;;;;;2.58;1.55;;;14.20;99.90;;;;;;5031708;28;20488;-79
2023/03/30 06:34:06;;;;;;;2.40;1.30;;;14.40;99.90;;;;;;5017593;28;20038;-79
2023/03/30 06:36:32;;;;;;;2.65;0.80;;;14.20;99.90;;;;;;5012610;28;20030;-79
2023/03/30 06:38:58;;;;;;;4.38;1.33;;;14.30;99.90;;;;;;5000587;28;20033;-79
2023/03/30 06:41:23;;;;;;;5.45;1.08;;;14.30;99.90;;;;;;5017517;28;20030;-79
2023/03/30 06:43:49;;;;;;;3.20;1.05;;;14.30;99.90;;;;;;5000621;28;20033;-79
2023/03/30 06:46:15;;;;;;;4.13;1.08;;;14.40;99.90;;;;;;5000964;28;20037;-79
2023/03/30 06:48:41;;;;;;;1.58;0.93;;;14.50;99.90;;;;;;5003266;28;20049;-78
2023/03/30 06:51:07;;;;;;;2.75;1.00;;;14.30;99.90;;;;;;4996591;28;20493;-79
2023/03/30 06:53:33;;;;;;;2.63;1.10;;;14.80;99.90;;;;;;5015462;28;20612;-79
2023/03/30 06:55:58;;;;;;;6.28;1.13;;;14.60;99.90;;;;;;5005737;28;20054;-78
2023/03/30 06:58:26;;;;;;;5.30;1.30;;;14.70;99.90;;;;;;5003961;28;20033;-79
2023/03/30 07:00:51;;;;;;;3.13;1.50;;;14.70;99.90;;;;;;4993133;28;20022;-78
2023/03/30 07:03:17;;;;;;;4.15;1.23;;;14.70;99.90;;;;;;5000668;28;20128;-78
2023/03/30 07:05:46;;;;;;;4.82;1.20;;;14.90;99.90;;;;;;5022968;28;20033;-79
2023/03/30 07:08:13;;;;;;;2.95;1.38;;;14.90;99.90;;;;;;5035020;28;20037;-78
2023/03/30 07:10:38;;;;;;;3.88;0.80;;;15.20;99.90;;;;;;5016436;28;20038;-78
2023/03/30 07:13:06;;;;;;;1.90;0.65;;;15.70;99.90;;;;;;4996767;28;20064;-78
2023/03/30 07:15:32;;;;;;;4.80;1.30;;;15.00;99.90;;;;;;4997584;28;20019;-78
2023/03/30 07:17:57;;;;;;;2.08;0.88;;;15.30;99.90;;;;;;5017671;28;20026;-78
2023/03/30 07:20:23;;;;;;;3.95;0.88;;;14.90;99.90;;;;;;5003815;28;20033;-78
2023/03/30 07:22:49;;;;;;;3.42;1.35;;;15.10;99.90;;;;;;4991374;28;20369;-78
2023/03/30 07:25:15;;;;;;;5.35;1.15;;;15.00;99.90;;;;;;5011481;28;22963;-79
2023/03/30 07:27:40;;;;;;;5.10;1.33;;;15.00;99.90;;;;;;5019861;28;20037;-79
2023/03/30 07:30:07;;;;;;;9.20;1.35;;;15.00;99.90;;;;;;5031653;28;20441;-79
2023/03/30 07:32:33;;;;;;;2.65;0.93;;;15.00;99.90;;;;;;5003441;28;20030;-79
2023/03/30 07:34:58;;;;;;;2.50;1.23;;;15.00;99.90;;;;;;5017479;28;20115;-79
2023/03/30 07:37:24;;;;;;;1.23;0.80;;;15.20;99.90;;;;;;5016406;28;20038;-79
2023/03/30 07:39:50;;;;;;;0.93;0.77;;;15.00;99.90;;;;;;5014984;28;20397;-79
2023/03/30 07:42:15;;;;;;;3.33;1.00;;;15.00;99.90;;;;;;5003202;28;20034;-78
2023/03/30 07:44:41;;;;;;;1.42;0.93;;;15.30;99.90;;;;;;5035623;28;20044;-79
2023/03/30 07:47:06;;;;;;;2.95;0.95;;;15.00;99.90;;;;;;5009032;28;20033;-79
2023/03/30 07:49:32;;;;;;;3.70;1.30;;;15.00;99.90;;;;;;5026997;28;20045;-79
2023/03/30 07:51:58;;;;;;;2.38;0.73;;;15.30;99.90;;;;;;5019877;28;20069;-79
2023/03/30 07:54:23;;;;;;;3.50;1.63;;;14.90;99.90;;;;;;5025864;28;20200;-79
2023/03/30 07:56:52;;;;;;;0.90;0.63;;;15.00;99.90;;;;;;5008747;28;20406;-79
2023/03/30 07:59:22;;;;;;;4.18;0.90;;;15.00;99.90;;;;;;5014580;28;20372;-79
2023/03/30 08:01:49;;;;;;;6.32;1.35;;;15.00;99.90;;;;;;5007098;28;20398;-79
2023/03/30 08:04:15;;;;;;;4.03;1.50;;;15.30;99.90;;;;;;5015132;28;20037;-79
2023/03/30 08:06:41;;;;;;;6.30;1.40;;;14.80;99.90;;;;;;5023598;28;20034;-80
2023/03/30 08:09:07;;;;;;;4.05;1.88;;;14.60;99.90;;;;;;4998320;28;20030;-79
2023/03/30 08:11:34;;;;;;;5.70;0.85;;;14.60;99.90;;;;;;5002152;28;20421;-80
2023/03/30 08:14:00;;;;;;;5.18;1.63;;;14.70;99.90;;;;;;5003921;28;20029;-80
2023/03/30 08:16:26;;;;;;;3.53;0.93;;;14.60;99.90;;;;;;5015041;28;20029;-80
2023/03/30 08:18:53;;;;;;;2.22;1.02;;;14.40;99.90;;;;;;5012019;28;20463;-80
2023/03/30 08:21:20;;;;;;;3.15;1.00;;;14.70;99.90;;;;;;5021163;28;20026;-81
2023/03/30 08:23:45;;;;;;;3.80;1.08;;;14.60;99.90;;;;;;5002405;28;20493;-80
2023/03/30 08:26:11;;;;;;;1.80;0.73;;;14.40;99.90;;;;;;5021430;28;20357;-81
2023/03/30 08:28:37;;;;;;;4.03;1.45;;;14.80;99.90;;;;;;5037922;28;20035;-80
2023/03/30 08:31:07;;;;;;;1.90;0.75;;;14.60;99.90;;;;;;5019868;28;20029;-81
2023/03/30 08:33:33;;;;;;;6.60;0.70;;;14.70;99.90;;;;;;5002510;28;20037;-80
2023/03/30 08:35:59;;;;;;;3.40;0.93;;;15.00;99.90;;;;;;5007543;28;20123;-80
2023/03/30 08:38:25;;;;;;;3.83;1.00;;;14.70;99.90;;;;;;5009212;28;20494;-80
2023/03/30 08:40:51;;;;;;;2.60;0.80;;;14.70;99.90;;;;;;5009826;28;20034;-80
2023/03/30 08:43:32;;;;;;;6.32;1.20;;;15.10;99.90;;;;;;5017051;28;20041;-80
2023/03/30 08:45:58;;;;;;;2.90;1.00;;;14.90;99.90;;;;;;4999240;28;20033;-80
2023/03/30 08:48:26;;;;;;;7.07;1.40;;;15.20;99.90;;;;;;5019024;28;20363;-80
2023/03/30 08:51:25;;;;;;;2.85;0.82;;;14.90;99.90;;;;;;5005910;28;20415;-81
2023/03/30 08:53:54;;;;;;;3.47;0.70;;;15.10;99.90;;;;;;5005786;28;20041;-80
2023/03/30 08:56:26;;;;;;;2.92;0.93;;;15.20;99.90;;;;;;5017861;28;20030;-81
2023/03/30 08:59:19;;;;;;;1.98;0.82;;;15.30;99.90;;;;;;4994262;28;20026;-80
2023/03/30 09:01:58;;;;;;;4.35;1.13;;;15.30;99.90;;;;;;5018646;28;20056;-80
2023/03/30 09:04:35;;;;;;;6.85;1.00;;;15.30;99.90;;;;;;5016998;28;20038;-80
2023/03/30 09:07:20;;;;;;;2.88;0.88;;;15.40;99.90;;;;;;5023426;28;20051;-81
2023/03/30 09:09:46;;;;;;;2.83;0.90;;;15.80;99.90;;;;;;5005072;28;20115;-80
2023/03/30 09:12:17;;;;;;;9.02;1.15;;;15.80;99.90;;;;;;5015378;28;20467;-80
2023/03/30 09:14:45;;;;;;;4.30;0.93;;;15.60;99.90;;;;;;5016741;28;20049;-80
2023/03/30 09:17:38;;;;;;;7.72;1.45;;;16.30;99.90;;;;;;5014345;28;20038;-81
2023/03/30 09:20:26;;;;;;;10.50;1.33;;;16.10;99.90;;;;;;5000994;28;20806;-81
2023/03/30 09:22:52;;;;;;;5.90;1.30;;;16.10;99.90;;;;;;5015330;28;20386;-81
2023/03/30 09:25:20;;;;;;;8.77;1.00;;;16.10;99.90;;;;;;5029075;28;20076;-81
2023/03/30 09:28:01;;;;;;;2.08;0.80;;;16.40;99.90;;;;;;5013470;28;20021;-80
2023/03/30 09:30:44;;;;;;;5.03;0.80;;;16.40;99.90;;;;;;5024543;28;20478;-80
2023/03/30 09:33:19;;;;;;;5.22;1.40;;;16.40;99.90;;;;;;4996065;28;20069;-81
2023/03/30 09:36:01;;;;;;;9.85;1.88;;;16.40;99.90;;;;;;5031433;28;20083;-80
2023/03/30 09:38:27;;;;;;;5.32;0.82;;;16.40;99.90;;;;;;5030272;28;20083;-80
2023/03/30 09:41:06;;;;;;;3.35;1.00;;;16.30;99.90;;;;;;5000253;28;20135;-80
2023/03/30 09:43:43;;;;;;;10.02;1.58;;;16.30;99.90;;;;;;5024407;28;20505;-80
2023/03/30 09:46:09;;;;;;;7.60;1.20;;;16.40;99.90;;;;;;5001684;28;20030;-80
2023/03/30 09:48:53;;;;;;;4.15;1.02;;;16.40;99.90;;;;;;5000363;28;20022;-80
2023/03/30 09:51:23;;;;;;;10.57;0.95;;;16.40;99.90;;;;;;5005444;28;20350;-80
2023/03/30 09:53:51;;;;;;;7.72;1.17;;;16.40;99.90;;;;;;5014809;28;20034;-79
2023/03/30 09:56:36;;;;;;;8.82;1.42;;;16.30;99.90;;;;;;5012756;28;20044;-80
2023/03/30 09:59:31;;;;;;;10.18;1.10;;;16.20;99.90;;;;;;5005234;28;20038;-81
2023/03/30 10:02:15;;;;;;;4.88;1.25;;;16.30;99.90;;;;;;5006141;28;20143;-80
2023/03/30 10:04:55;;;;;;;4.32;0.75;;;16.30;99.90;;;;;;5030243;28;20022;-79
2023/03/30 10:07:21;;;;;;;3.50;0.73;;;16.40;99.90;;;;;;4990638;28;20498;-79
2023/03/30 10:09:47;;;;;;;8.02;1.30;;;15.70;99.90;;;;;;5018144;28;22304;-80
2023/03/30 10:12:12;;;;;;;4.72;1.52;;;15.60;99.90;;;;;;4998007;28;20402;-80
2023/03/30 10:14:38;;;;;;;3.70;0.88;;;15.80;99.90;;;;;;5030580;28;20137;-80
2023/03/30 10:17:04;;;;;;;4.60;1.50;;;15.70;99.90;;;;;;5003092;28;20592;-80
2023/03/30 10:19:29;;;;;;;4.47;0.93;;;15.70;99.90;;;;;;5034180;28;20566;-80
2023/03/30 10:22:03;;;;;;;5.72;1.60;;;15.50;99.90;;;;;;5023134;28;20034;-80
2023/03/30 10:24:30;;;;;;;4.78;0.93;;;15.30;99.90;;;;;;5032318;28;20488;-80
2023/03/30 10:27:16;;;;;;;3.08;1.00;;;15.00;99.90;;;;;;5014488;28;20037;-79
2023/03/30 10:29:46;;;;;;;7.13;1.70;;;14.90;99.90;;;;;;5031761;28;20509;-80
2023/03/30 10:32:28;;;;;;;2.75;0.98;;;14.90;99.90;;;;;;4989169;28;20809;-80
2023/03/30 10:35:00;;;;;;;7.03;1.33;;;14.80;99.90;;;;;;4999585;28;20033;-79
2023/03/30 10:37:33;;;;;;;6.05;2.00;;;14.90;99.90;;;;;;5007860;28;20155;-80
2023/03/30 10:40:00;;;;;;;5.75;1.42;;;14.90;99.90;;;;;;4992567;28;20030;-80
2023/03/30 10:42:27;;;;;;;12.15;2.50;;;15.00;99.90;;;;;;5030435;28;20080;-80
2023/03/30 10:44:58;;;;;;;8.10;1.98;;;14.80;99.90;;;;;;5004634;28;20497;-80
2023/03/30 10:47:51;;;;;;;4.72;1.67;;;14.70;99.90;;;;;;5025688;28;20056;-80
2023/03/30 10:50:20;;;;;;;7.88;1.55;;;14.70;99.90;;;;;;4323995;28;9999838;-80
2023/03/30 10:53:05;;;;;;;10.38;2.00;;;14.90;99.90;;;;;;5021425;28;20595;-80
2023/03/30 10:55:48;;;;;;;10.40;1.77;;;14.80;99.90;;;;;;5016266;28;20061;-80
2023/03/30 10:58:26;;;;;;;8.38;1.90;;;14.70;99.90;;;;;;5015644;28;20140;-80
2023/03/30 11:01:06;;;;;;;3.83;1.70;;;15.00;99.90;;;;;;5014559;28;20078;-80
2023/03/30 11:03:32;;;;;;;6.78;1.80;;;15.40;99.90;;;;;;5017900;28;20045;-80
2023/03/30 11:06:21;;;;;;;12.57;2.05;;;15.80;99.90;;;;;;5017616;28;20029;-81
2023/03/30 11:08:47;;;;;;;10.25;2.20;;;15.90;99.90;;;;;;5009408;28;20406;-80
2023/03/30 11:11:20;;;;;;;5.90;1.33;;;16.00;99.90;;;;;;5023541;28;20117;-80
2023/03/30 11:13:52;;;;;;;6.70;1.60;;;16.20;99.90;;;;;;5009070;28;20041;-80
2023/03/30 11:16:20;;;;;;;6.35;1.55;;;16.40;99.90;;;;;;5009591;28;20038;-80
2023/03/30 11:19:12;;;;;;;6.28;1.65;;;16.60;99.90;;;;;;5013539;28;20116;-80
2023/03/30 11:22:05;;;;;;;5.85;1.88;;;17.00;99.90;;;;;;5023690;28;20072;-80
2023/03/30 11:24:31;;;;;;;9.10;2.22;;;16.80;99.90;;;;;;5021964;28;20017;-80
2023/03/30 11:27:10;;;;;;;10.85;2.40;;;17.00;99.90;;;;;;5008449;28;20068;-80
2023/03/30 11:29:48;;;;;;;5.28;2.25;;;17.00;99.90;;;;;;5024223;28;20426;-80
2023/03/30 11:32:26;;;;;;;9.50;3.53;;;17.10;99.90;;;;;;5027611;28;20034;-81
2023/03/30 11:35:08;;;;;;;7.00;2.03;;;17.40;99.90;;;;;;5019041;28;20034;-79
2023/03/30 11:37:56;;;;;;;6.82;1.52;;;17.50;99.90;;;;;;5020800;28;20410;-80
2023/03/30 11:40:43;;;;;;;3.25;1.05;;;17.80;99.90;;;;;;5018745;28;20632;-80
2023/03/30 11:43:15;;;;;;;5.63;1.50;;;17.70;99.90;;;;;;5014482;28;20041;-80
2023/03/30 11:45:45;;;;;;;9.75;1.77;;;17.80;99.90;;;;;;5025566;28;20624;-80
2023/03/30 11:48:14;;;;;;;6.57;2.28;;;17.90;99.90;;;;;;5026430;28;20551;-81
2023/03/30 11:51:15;;;;;;;7.40;1.67;;;18.00;99.90;;;;;;5033001;28;20123;-81
2023/03/30 11:53:50;;;;;;;8.48;2.30;;;17.80;99.90;;;;;;4925799;28;20524;-81
2023/03/30 11:56:26;;;;;;;4.82;1.33;;;17.30;99.90;;;;;;5011357;28;20088;-80
2023/03/30 11:59:03;;;;;;;9.95;1.88;;;17.70;99.90;;;;;;5028836;28;20083;-80
2023/03/30 12:01:56;;;;;;;2.58;1.00;;;17.60;99.90;;;;;;5021199;28;20036;-80
2023/03/30 12:04:27;;;;;;;4.50;1.02;;;17.50;99.90;;;;;;5007386;28;20080;-81
2023/03/30 12:07:02;;;;;;;8.23;2.00;;;17.50;99.90;;;;;;4992043;28;20037;-81
2023/03/30 12:09:38;;;;;;;8.20;1.60;;;17.80;99.90;;;;;;5024087;28;20065;-84
2023/03/30 12:12:17;;;;;;;4.47;1.75;;;17.90;99.90;;;;;;5016135;28;20625;-81
2023/03/30 12:15:01;;;;;;;7.00;2.10;;;18.30;99.90;;;;;;5022739;28;20041;-81
2023/03/30 12:17:42;;;;;;;5.35;1.38;;;18.00;99.90;;;;;;5031672;28;20049;-81
2023/03/30 12:20:45;;;;;;;3.30;1.17;;;17.90;99.90;;;;;;5007020;28;20430;-81
2023/03/30 12:23:21;;;;;;;7.63;1.17;;;17.60;99.90;;;;;;5002503;28;20042;-81
2023/03/30 12:26:07;;;;;;;;;;;17.50;99.90;;;;;;5019940;28;20045;-81
2023/03/30 12:28:46;;;;;;;6.10;1.50;;;17.70;99.90;;;;;;5008610;28;19920;-81
2023/03/30 12:31:11;;;;;;;6.95;1.33;;;18.10;99.90;;;;;;5024043;28;20082;-81
2023/03/30 12:33:47;;;;;;;7.15;1.40;;;17.50;99.90;;;;;;5020707;28;20512;-81
2023/03/30 12:36:32;;;;;;;6.20;1.30;;;17.30;99.90;;;;;;5008477;28;20602;-81
2023/03/30 12:39:01;;;;;;;8.60;1.88;;;17.10;99.90;;;;;;5030606;28;20030;-81
2023/03/30 12:41:27;;;;;;;7.22;1.50;;;16.90;99.90;;;;;;5020211;28;20036;-81
2023/03/30 12:44:24;;;;;;;2.80;1.17;;;16.90;99.90;;;;;;5009969;28;20485;-80
2023/03/30 12:47:12;;;;;;;3.13;0.95;;;16.80;99.90;;;;;;5013597;28;20506;-81
2023/03/30 12:50:11;;;;;;;10.55;1.35;;;16.60;99.90;;;;;;5005034;28;20025;-80
2023/03/30 12:52:49;;;;;;;6.05;1.17;;;16.30;99.90;;;;;;5018181;28;20030;-80
2023/03/30 12:55:29;;;;;;;6.70;0.73;;;16.20;99.90;;;;;;5014764;28;20452;-80
2023/03/30 12:57:55;;;;;;;5.45;0.90;;;16.20;99.90;;;;;;5036612;28;20098;-81
2023/03/30 13:00:35;;;;;;;5.05;1.15;;;16.40;99.90;;;;;;5015994;28;20029;-81
2023/03/30 13:03:15;;;;;;;3.33;0.80;;;16.20;99.90;;;;;;5022288;28;20745;-81
2023/03/30 13:05:42;;;;;;;3.13;0.35;;;15.90;99.90;;;;;;5018393;28;20029;-81
2023/03/30 13:08:37;;;;;;;6.50;0.88;;;15.80;99.90;;;;;;5020712;28;20033;-81